Time;durP1;ratioP1;P1;durP2;ratioP2;P2;SDS_P1;SDS_P2;PMS_P1;PMS_P2;Temp;Humidity;BMP_temperature;BMP_pressure;BME280_temperature;BME280_humidity;BME280_pressure;Samples;Min_cycle;Max_cycle;Signal;HPM_P1;HPM_P2
2024/03/08 00:02:12;;;;;;;210.45;86.32;;;;;;;2.75;100.00;98088.03;5115568;27;20068;-59
2024/03/08 00:04:38;;;;;;;158.65;116.00;;;;;;;2.55;100.00;98085.72;5114042;27;20745;-60
2024/03/08 00:07:04;;;;;;;132.75;34.72;;;;;;;2.40;100.00;98094.69;5117734;27;20150;-57
2024/03/08 00:09:30;;;;;;;177.93;83.82;;;;;;;2.34;100.00;98081.69;5116748;27;20030;-60
2024/03/08 00:11:56;;;;;;;114.28;35.95;;;;;;;2.49;100.00;98083.84;5117733;27;20072;-58
2024/03/08 00:14:21;;;;;;;126.53;46.92;;;;;;;2.36;100.00;98080.03;5115832;27;20106;-60
2024/03/08 00:16:47;;;;;;;134.48;66.10;;;;;;;2.26;100.00;98086.56;5118057;27;20031;-58
2024/03/08 00:19:12;;;;;;;214.98;116.47;;;;;;;2.28;100.00;98089.19;5116873;27;20063;-60
2024/03/08 00:21:38;;;;;;;113.80;34.60;;;;;;;2.19;100.00;98082.09;5116543;27;20039;-58
2024/03/08 00:24:03;;;;;;;123.68;26.35;;;;;;;2.26;100.00;98083.16;5115066;27;20891;-58
2024/03/08 00:26:30;;;;;;;106.32;30.90;;;;;;;2.17;100.00;98081.16;5116720;27;20043;-59
2024/03/08 00:28:55;;;;;;;132.20;37.55;;;;;;;2.26;100.00;98073.72;5117021;27;20284;-59
2024/03/08 00:31:20;;;;;;;121.80;55.42;;;;;;;2.19;100.00;98067.53;5118117;27;21566;-60
2024/03/08 00:33:46;;;;;;;107.00;21.60;;;;;;;2.35;100.00;98068.03;5117196;27;20440;-59
2024/03/08 00:36:12;;;;;;;204.27;100.68;;;;;;;2.51;100.00;98076.19;5118117;27;20376;-58
2024/03/08 00:38:37;;;;;;;88.85;19.17;;;;;;;2.36;100.00;98067.19;5118604;27;20516;-57
2024/03/08 00:41:02;;;;;;;97.20;16.60;;;;;;;2.50;100.00;98065.06;5114569;27;20197;-57
2024/03/08 00:43:30;;;;;;;114.10;18.38;;;;;;;2.59;100.00;98064.44;5116537;27;20125;-60
2024/03/08 00:45:55;;;;;;;218.95;164.98;;;;;;;2.50;100.00;98061.59;5115148;27;20035;-59
2024/03/08 00:48:21;;;;;;;143.93;22.88;;;;;;;2.28;100.00;98060.94;5117990;27;20100;-59
2024/03/08 00:50:46;;;;;;;140.82;47.15;;;;;;;2.17;100.00;98058.06;5115362;27;20406;-57
2024/03/08 00:53:12;;;;;;;139.75;59.35;;;;;;;2.06;100.00;98061.16;5114857;27;20035;-57
2024/03/08 00:55:38;;;;;;;107.68;45.55;;;;;;;2.22;100.00;98069.31;5116859;27;20462;-57
2024/03/08 00:58:04;;;;;;;167.60;72.13;;;;;;;2.06;100.00;98061.16;5112729;27;20100;-57
2024/03/08 01:00:29;;;;;;;93.80;18.58;;;;;;;2.26;100.00;98060.91;5116866;27;20348;-60
2024/03/08 01:02:55;;;;;;;92.07;18.23;;;;;;;2.30;100.00;98062.72;5116309;27;20409;-60
2024/03/08 01:05:21;;;;;;;181.85;49.10;;;;;;;2.15;100.00;98057.16;5113633;27;20035;-58
2024/03/08 01:07:46;;;;;;;91.45;31.15;;;;;;;2.18;100.00;98058.09;5116112;27;20031;-59
2024/03/08 01:10:12;;;;;;;244.68;165.55;;;;;;;2.10;100.00;98054.41;5114470;27;20034;-59
2024/03/08 01:12:40;;;;;;;136.00;43.63;;;;;;;2.18;100.00;98041.81;5116674;27;20031;-59
2024/03/08 01:15:06;;;;;;;114.35;24.98;;;;;;;2.19;100.00;98048.72;5112873;27;20019;-58
2024/03/08 01:17:31;;;;;;;112.85;38.78;;;;;;;2.27;100.00;98031.84;5116462;27;20011;-58
2024/03/08 01:19:58;;;;;;;138.43;24.83;;;;;;;2.45;100.00;98036.66;5114259;27;20223;-58
2024/03/08 01:22:23;;;;;;;140.82;41.20;;;;;;;2.32;100.00;98021.72;5114879;27;20038;-58
2024/03/08 01:24:49;;;;;;;113.72;22.38;;;;;;;2.26;100.00;98032.66;5116052;27;20050;-58
2024/03/08 01:27:14;;;;;;;199.52;87.28;;;;;;;2.42;100.00;98021.16;5114816;27;20031;-61
2024/03/08 01:29:39;;;;;;;107.45;37.97;;;;;;;2.47;100.00;98022.19;5116130;27;20031;-60
2024/03/08 01:32:06;;;;;;;127.22;42.42;;;;;;;2.49;100.00;98021.34;5114549;27;20031;-59
2024/03/08 01:34:32;;;;;;;121.60;30.58;;;;;;;2.40;100.00;98021.94;5115506;27;20023;-59
2024/03/08 01:36:59;;;;;;;100.07;22.90;;;;;;;2.55;100.00;98018.94;5116824;27;20019;-60
2024/03/08 01:39:24;;;;;;;141.27;33.83;;;;;;;2.50;100.00;98020.53;5114197;27;20144;-60
2024/03/08 01:41:50;;;;;;;81.22;23.88;;;;;;;2.62;100.00;98007.16;5114792;27;20039;-62
2024/03/08 01:44:18;;;;;;;156.32;27.75;;;;;;;2.85;100.00;98008.69;5113337;27;20066;-59
2024/03/08 01:46:49;;;;;;;124.03;38.53;;;;;;;2.91;100.00;98008.00;5115504;27;20138;-59
2024/03/08 01:49:14;;;;;;;139.57;33.97;;;;;;;2.92;100.00;97996.88;5115545;27;20023;-59
2024/03/08 01:51:41;;;;;;;97.25;29.58;;;;;;;3.12;100.00;97994.00;5115599;27;20038;-58
2024/03/08 01:54:09;;;;;;;103.15;32.83;;;;;;;3.09;100.00;97993.91;5113839;27;20023;-58
2024/03/08 01:56:37;;;;;;;91.93;25.10;;;;;;;3.21;100.00;97989.09;5095374;27;20262;-58
2024/03/08 01:59:03;;;;;;;134.52;32.38;;;;;;;3.03;100.00;97988.59;5115916;27;20084;-59
2024/03/08 02:01:29;;;;;;;107.10;27.73;;;;;;;2.34;100.00;97989.28;5112134;27;20127;-58
2024/03/08 02:03:54;;;;;;;130.68;30.23;;;;;;;2.59;100.00;97982.25;5116643;27;20031;-60
2024/03/08 02:06:19;;;;;;;171.73;28.38;;;;;;;2.85;100.00;97979.56;5114525;27;20506;-59
2024/03/08 02:08:45;;;;;;;97.35;27.23;;;;;;;2.95;100.00;97971.28;5113990;27;20024;-60
2024/03/08 02:11:11;;;;;;;112.88;25.08;;;;;;;3.01;100.00;97969.69;5112814;27;20040;-60
2024/03/08 02:13:37;;;;;;;129.30;29.45;;;;;;;2.81;100.00;97973.47;5114731;27;20026;-60
2024/03/08 02:16:04;;;;;;;92.35;25.13;;;;;;;2.65;100.00;97966.16;5095696;27;20388;-60
2024/03/08 02:18:30;;;;;;;90.32;30.85;;;;;;;2.81;100.00;97964.88;5114710;27;20592;-58
2024/03/08 02:20:57;;;;;;;128.43;26.50;;;;;;;2.84;100.00;97968.44;5114306;27;20038;-57
2024/03/08 02:23:24;;;;;;;144.60;31.10;;;;;;;2.72;100.00;97968.09;5113714;27;20575;-59
2024/03/08 02:25:50;;;;;;;95.97;24.85;;;;;;;2.65;100.00;97963.59;5114339;27;20035;-61
2024/03/08 02:28:18;;;;;;;135.32;29.27;;;;;;;2.65;100.00;97966.16;5112394;27;20041;-59
2024/03/08 02:30:46;;;;;;;87.00;24.60;;;;;;;2.62;100.00;97963.50;5115576;27;20046;-57
2024/03/08 02:33:16;;;;;;;148.30;32.42;;;;;;;2.51;100.00;97969.22;5116640;27;20027;-61
2024/03/08 02:35:45;;;;;;;90.15;25.20;;;;;;;2.44;100.00;97964.72;5117649;27;20538;-57
2024/03/08 02:38:12;;;;;;;102.32;27.75;;;;;;;2.72;100.00;97962.94;5119576;27;20430;-60
2024/03/08 02:40:37;;;;;;;96.00;27.30;;;;;;;2.58;100.00;97960.88;5119608;27;20035;-58
2024/03/08 02:43:04;;;;;;;93.88;24.48;;;;;;;2.35;100.00;97960.22;5120437;27;20030;-57
2024/03/08 02:45:30;;;;;;;93.50;22.17;;;;;;;2.37;100.00;97955.97;5117341;27;20497;-60
2024/03/08 02:47:56;;;;;;;108.68;26.60;;;;;;;2.50;100.00;97953.75;5102282;27;20509;-57
2024/03/08 02:50:22;;;;;;;122.00;27.85;;;;;;;2.49;100.00;97952.03;5116232;27;20054;-59
2024/03/08 02:52:47;;;;;;;104.93;31.85;;;;;;;2.32;100.00;97948.16;5122105;27;20357;-60
2024/03/08 02:55:16;;;;;;;186.98;130.50;;;;;;;2.01;100.00;97954.94;5117102;27;20035;-57
2024/03/08 02:57:41;;;;;;;96.95;25.98;;;;;;;2.10;100.00;97953.47;5118908;27;20025;-57
2024/03/08 03:00:10;;;;;;;146.95;36.45;;;;;;;2.00;100.00;97952.34;5118890;27;20027;-58
2024/03/08 03:02:37;;;;;;;108.28;54.88;;;;;;;1.75;100.00;97949.03;5120497;27;20031;-60
2024/03/08 03:05:05;;;;;;;105.57;38.42;;;;;;;1.67;100.00;97941.94;5118994;27;20019;-59
2024/03/08 03:07:34;;;;;;;173.48;96.00;;;;;;;1.41;100.00;97934.31;5116105;27;20032;-58
2024/03/08 03:10:00;;;;;;;143.38;31.88;;;;;;;1.34;100.00;97944.31;5118029;27;20039;-59
2024/03/08 03:12:29;;;;;;;141.32;27.77;;;;;;;1.30;100.00;97933.09;5119867;27;20041;-58
2024/03/08 03:14:56;;;;;;;113.03;58.47;;;;;;;1.21;100.00;97938.78;5120212;27;20283;-59
2024/03/08 03:17:24;;;;;;;151.60;31.13;;;;;;;1.10;100.00;97938.44;5116497;27;20063;-59
2024/03/08 03:19:53;;;;;;;125.03;19.33;;;;;;;1.11;100.00;97935.03;5117966;27;20109;-57
2024/03/08 03:22:19;;;;;;;142.73;20.20;;;;;;;1.17;100.00;97929.25;5116822;27;20066;-58
2024/03/08 03:24:46;;;;;;;137.95;74.18;;;;;;;1.20;100.00;97934.50;5118406;27;20033;-60
2024/03/08 03:27:12;;;;;;;107.30;16.52;;;;;;;1.11;100.00;97929.06;5118271;27;20533;-58
2024/03/08 03:29:49;;;;;;;98.25;23.92;;;;;;;1.03;100.00;97932.22;5102017;27;20360;-59
2024/03/08 03:32:15;;;;;;;154.00;49.00;;;;;;;1.12;100.00;97935.91;5114617;27;20038;-58
2024/03/08 03:34:41;;;;;;;105.68;52.22;;;;;;;1.10;100.00;97927.31;5116420;27;20108;-58
2024/03/08 03:37:08;;;;;;;108.00;34.40;;;;;;;0.92;100.00;97927.56;5118036;27;20038;-60
2024/03/08 03:39:34;;;;;;;108.00;25.00;;;;;;;0.97;100.00;97928.59;5116278;27;20120;-59
2024/03/08 03:42:01;;;;;;;81.68;25.13;;;;;;;0.85;100.00;97929.91;5116751;27;20102;-57
2024/03/08 03:44:30;;;;;;;225.80;109.22;;;;;;;0.81;100.00;97924.66;5113466;27;20483;-59
2024/03/08 03:46:55;;;;;;;122.88;52.53;;;;;;;0.85;100.00;97927.34;5116294;27;20109;-58
2024/03/08 03:49:20;;;;;;;202.50;86.10;;;;;;;0.96;100.00;97921.72;5118069;27;20022;-59
2024/03/08 03:51:46;;;;;;;112.93;26.58;;;;;;;0.88;100.00;97929.13;5117629;27;20100;-59
2024/03/08 03:54:12;;;;;;;157.43;56.10;;;;;;;1.01;100.00;97921.03;5117611;27;20076;-59
2024/03/08 03:56:39;;;;;;;88.55;19.25;;;;;;;0.92;100.00;97920.75;5115969;27;20400;-58
2024/03/08 03:59:06;;;;;;;125.78;40.13;;;;;;;0.96;100.00;97916.63;5118568;27;20027;-57
2024/03/08 04:01:31;;;;;;;286.73;168.23;;;;;;;0.84;100.00;97920.50;5116390;27;20616;-57
2024/03/08 04:03:57;;;;;;;168.43;65.97;;;;;;;0.96;100.00;97909.78;5119688;27;20034;-57
2024/03/08 04:06:22;;;;;;;143.55;22.17;;;;;;;0.82;100.00;97911.88;5115468;27;20039;-57
2024/03/08 04:08:47;;;;;;;97.60;23.70;;;;;;;0.90;100.00;97915.56;5115508;27;20066;-59
2024/03/08 04:11:16;;;;;;;350.13;253.68;;;;;;;0.97;100.00;97910.66;5117310;27;20047;-59
2024/03/08 04:13:41;;;;;;;127.63;24.00;;;;;;;0.87;100.00;97912.03;5118725;27;20059;-57
2024/03/08 04:16:07;;;;;;;104.72;25.42;;;;;;;1.07;100.00;97911.84;5116597;27;20069;-60
2024/03/08 04:18:35;;;;;;;135.68;21.83;;;;;;;1.16;100.00;97907.03;5116841;27;20027;-58
2024/03/08 04:21:02;;;;;;;134.48;48.78;;;;;;;1.16;100.00;97905.31;5116230;27;20678;-60
2024/03/08 04:23:28;;;;;;;149.23;33.50;;;;;;;1.12;100.00;97900.91;5117134;27;20037;-58
2024/03/08 04:25:54;;;;;;;117.38;44.10;;;;;;;1.10;100.00;97902.56;5115054;27;20034;-57
2024/03/08 04:28:19;;;;;;;169.20;52.75;;;;;;;1.13;100.00;97905.22;5114196;27;20386;-58
2024/03/08 04:30:46;;;;;;;135.85;71.25;;;;;;;1.27;100.00;97905.66;5116981;27;20403;-58
2024/03/08 04:33:11;;;;;;;145.38;48.47;;;;;;;1.05;100.00;97893.88;5116595;27;20121;-60
2024/03/08 04:35:37;;;;;;;234.55;140.85;;;;;;;0.99;100.00;97899.66;5114963;27;20034;-60
2024/03/08 04:38:05;;;;;;;121.68;52.85;;;;;;;0.95;100.00;97891.78;5117708;27;20642;-59
2024/03/08 04:40:31;;;;;;;267.42;137.25;;;;;;;0.83;100.00;97895.72;5113571;27;20062;-58
2024/03/08 04:42:59;;;;;;;266.23;186.23;;;;;;;1.12;100.00;97892.38;5117242;27;20030;-60
2024/03/08 04:45:25;;;;;;;229.95;108.78;;;;;;;0.89;100.00;97893.34;5113492;27;20468;-60
2024/03/08 04:47:52;;;;;;;270.83;113.57;;;;;;;0.82;100.00;97883.69;5117935;27;20044;-59
2024/03/08 04:50:18;;;;;;;463.10;397.10;;;;;;;0.90;100.00;97889.09;5113986;27;20479;-59
2024/03/08 04:52:43;;;;;;;223.13;122.38;;;;;;;0.81;100.00;97884.53;5117266;27;20640;-59
2024/03/08 04:55:09;;;;;;;171.27;58.65;;;;;;;0.96;100.00;97880.75;5113368;27;20257;-59
2024/03/08 04:57:34;;;;;;;460.08;340.98;;;;;;;0.77;100.00;97883.56;5118331;27;20027;-59
2024/03/08 05:00:00;;;;;;;160.88;40.67;;;;;;;0.75;100.00;97889.47;5116886;27;20027;-60
2024/03/08 05:02:25;;;;;;;279.33;112.70;;;;;;;0.72;100.00;97879.09;5117724;27;20473;-61
2024/03/08 05:04:51;;;;;;;104.20;28.13;;;;;;;0.94;100.00;97874.69;5117823;27;20533;-59
2024/03/08 05:07:16;;;;;;;303.65;195.45;;;;;;;1.03;100.00;97886.13;5114498;27;20092;-59
2024/03/08 05:09:42;;;;;;;113.88;39.47;;;;;;;1.01;100.00;97874.94;5113754;27;20055;-61
2024/03/08 05:12:07;;;;;;;154.32;95.05;;;;;;;1.07;100.00;97879.41;5115634;27;20103;-58
2024/03/08 05:14:34;;;;;;;146.75;22.85;;;;;;;0.98;100.00;97879.97;5113587;27;20453;-58
2024/03/08 05:17:00;;;;;;;227.75;127.60;;;;;;;1.01;100.00;97886.91;5114978;27;20565;-59
2024/03/08 05:19:26;;;;;;;151.82;35.20;;;;;;;0.97;100.00;97872.25;5114867;27;20054;-60
2024/03/08 05:21:51;;;;;;;101.95;18.35;;;;;;;1.01;100.00;97876.66;5114849;27;20039;-58
2024/03/08 05:24:17;;;;;;;536.47;458.20;;;;;;;1.19;100.00;97876.38;5115121;27;20076;-58
2024/03/08 05:26:43;;;;;;;87.13;16.95;;;;;;;1.34;100.00;97864.88;5114523;27;20027;-58
2024/03/08 05:29:08;;;;;;;105.78;26.83;;;;;;;1.20;100.00;97867.88;5117603;27;20031;-58
2024/03/08 05:31:52;;;;;;;614.25;523.75;;;;;;;1.18;100.00;97864.38;5114745;27;20518;-57
2024/03/08 05:34:19;;;;;;;153.32;51.72;;;;;;;0.90;100.00;97859.22;5084723;27;20027;-58
2024/03/08 05:36:46;;;;;;;94.30;20.00;;;;;;;1.07;100.00;97861.47;5117169;27;20528;-60
2024/03/08 05:39:15;;;;;;;87.78;17.65;;;;;;;1.10;100.00;97864.13;5116988;27;20505;-58
2024/03/08 05:41:42;;;;;;;148.82;74.18;;;;;;;1.21;100.00;97864.47;5112880;27;20046;-61
2024/03/08 05:44:08;;;;;;;129.63;61.40;;;;;;;1.01;100.00;97856.16;5116639;27;20386;-60
2024/03/08 05:46:35;;;;;;;161.95;44.97;;;;;;;1.35;100.00;97854.69;5116030;27;20034;-60
2024/03/08 05:49:05;;;;;;;127.43;30.50;;;;;;;1.47;100.00;97854.19;5118637;27;20038;-59
2024/03/08 05:51:31;;;;;;;141.68;24.92;;;;;;;1.32;100.00;97857.13;5114445;27;20507;-58
2024/03/08 05:53:56;;;;;;;370.65;306.98;;;;;;;1.34;100.00;97855.47;5118356;27;20019;-58
2024/03/08 05:56:25;;;;;;;303.98;190.30;;;;;;;1.34;100.00;97852.91;5114331;27;20042;-60
2024/03/08 05:58:50;;;;;;;75.80;20.83;;;;;;;1.55;100.00;97855.28;5115204;27;20778;-59
2024/03/08 06:01:16;;;;;;;152.05;55.22;;;;;;;1.54;100.00;97847.53;5116367;27;20039;-60
2024/03/08 06:03:45;;;;;;;139.80;43.85;;;;;;;1.51;100.00;97850.88;5116500;27;20469;-58
2024/03/08 06:06:13;;;;;;;125.75;55.03;;;;;;;1.67;100.00;97854.78;5115869;27;20035;-59
2024/03/08 06:08:39;;;;;;;403.70;285.67;;;;;;;2.09;100.00;97852.56;5117499;27;20084;-60
2024/03/08 06:11:05;;;;;;;118.30;50.88;;;;;;;2.31;100.00;97851.44;5119238;27;20035;-58
2024/03/08 06:13:32;;;;;;;242.45;110.35;;;;;;;2.12;100.00;97846.63;5119112;27;20545;-58
2024/03/08 06:15:59;;;;;;;118.70;29.13;;;;;;;2.35;100.00;97847.28;5119323;27;20112;-57
2024/03/08 06:18:25;;;;;;;155.68;58.05;;;;;;;2.95;100.00;97841.94;5119981;27;20019;-59
2024/03/08 06:20:50;;;;;;;129.77;42.30;;;;;;;3.81;100.00;97838.72;5119324;27;20478;-61
2024/03/08 06:23:18;;;;;;;162.68;84.57;;;;;;;4.50;100.00;97844.41;5119273;27;20357;-59
2024/03/08 06:25:44;;;;;;;108.05;27.58;;;;;;;4.71;100.00;97848.19;5118858;27;20130;-61
2024/03/08 06:28:10;;;;;;;124.22;38.45;;;;;;;5.25;100.00;97847.34;5118387;27;20282;-58
2024/03/08 06:30:35;;;;;;;144.68;25.83;;;;;;;6.72;100.00;97840.63;5117203;27;20409;-58
2024/03/08 06:33:01;;;;;;;238.00;134.75;;;;;;;7.38;100.00;97848.91;5119839;27;20038;-58
2024/03/08 06:35:26;;;;;;;173.70;57.05;;;;;;;5.48;100.00;97850.28;5116713;27;20415;-59
2024/03/08 06:37:51;;;;;;;453.60;405.17;;;;;;;6.55;100.00;97843.03;5120709;27;20107;-59
2024/03/08 06:40:17;;;;;;;300.02;220.20;;;;;;;7.58;100.00;97845.59;5119596;27;20606;-58
2024/03/08 06:42:42;;;;;;;213.65;138.98;;;;;;;7.45;100.00;97844.69;5118180;27;20391;-58
2024/03/08 06:45:09;;;;;;;180.68;125.78;;;;;;;9.01;100.00;97837.50;5119341;27;20145;-58
2024/03/08 06:47:35;;;;;;;325.75;249.02;;;;;;;9.82;100.00;97832.19;5116985;27;20035;-61
2024/03/08 06:50:00;;;;;;;259.70;161.98;;;;;;;10.11;100.00;97824.31;5120835;27;20057;-59
2024/03/08 06:52:26;;;;;;;350.02;315.27;;;;;;;11.06;100.00;97808.16;5119953;27;20102;-61
2024/03/08 06:54:52;;;;;;;413.10;367.92;;;;;;;11.37;100.00;97787.91;5117213;27;20027;-62
2024/03/08 06:57:18;;;;;;;113.85;29.55;;;;;;;9.23;100.00;97789.91;5117679;27;20195;-59
2024/03/08 06:59:44;;;;;;;326.10;284.25;;;;;;;11.50;100.00;97776.50;5116259;27;20547;-59
2024/03/08 07:02:10;;;;;;;161.65;138.75;;;;;;;11.73;100.00;97777.97;5118096;27;20027;-58
2024/03/08 07:04:37;;;;;;;277.33;185.02;;;;;;;11.74;100.00;97784.94;5115241;27;20418;-59
2024/03/08 07:07:04;;;;;;;206.38;178.98;;;;;;;12.09;100.00;97774.97;5118243;27;20039;-59
2024/03/08 07:09:29;;;;;;;369.42;322.83;;;;;;;12.21;100.00;97781.81;5119442;27;20109;-59
2024/03/08 07:11:55;;;;;;;211.63;166.02;;;;;;;12.06;100.00;97783.72;5116831;27;20352;-60
2024/03/08 07:14:23;;;;;;;222.68;173.65;;;;;;;12.68;100.00;97776.78;5115848;27;20350;-62
2024/03/08 07:16:51;;;;;;;316.38;277.10;;;;;;;13.28;100.00;97782.75;5116743;27;20406;-61
2024/03/08 07:19:16;;;;;;;261.60;206.35;;;;;;;12.13;98.52;97787.09;5120395;27;20592;-62
2024/03/08 07:21:44;;;;;;;219.23;159.63;;;;;;;12.26;100.00;97777.38;5116544;27;20137;-62
2024/03/08 07:24:24;;;;;;;158.00;112.40;;;;;;;13.52;100.00;97774.53;5117779;27;20119;-61
2024/03/08 07:26:51;;;;;;;126.80;93.05;;;;;;;14.38;93.88;97776.28;5116448;27;20035;-59
2024/03/08 07:29:17;;;;;;;86.85;28.27;;;;;;;15.79;78.37;97773.72;5118979;27;20076;-60
2024/03/08 07:31:55;;;;;;;117.00;43.10;;;;;;;15.63;78.94;97757.56;5115623;27;20335;-57
2024/03/08 07:34:20;;;;;;;146.45;109.00;;;;;;;15.14;64.08;97771.03;5115728;27;20037;-58
2024/03/08 07:36:46;;;;;;;117.13;57.25;;;;;;;16.42;67.53;97764.94;5115296;27;20279;-58
2024/03/08 07:39:11;;;;;;;133.65;94.85;;;;;;;17.50;71.43;97762.31;5120120;27;20030;-61
2024/03/08 07:41:39;;;;;;;193.93;110.88;;;;;;;17.38;64.82;97760.13;5114217;27;20033;-59
2024/03/08 07:44:05;;;;;;;136.32;66.57;;;;;;;15.97;55.50;97764.50;5118747;27;20019;-58
2024/03/08 07:46:31;;;;;;;127.65;62.70;;;;;;;15.15;61.36;97759.69;5119447;27;20074;-57
2024/03/08 07:48:56;;;;;;;112.70;46.55;;;;;;;16.82;58.94;97751.44;5117268;27;20031;-60
2024/03/08 07:51:21;;;;;;;104.50;57.03;;;;;;;16.86;60.38;97751.31;5117236;27;20108;-58
2024/03/08 07:53:47;;;;;;;88.07;38.85;;;;;;;16.71;54.39;97747.41;5113480;27;20024;-57
2024/03/08 07:56:13;;;;;;;77.80;20.65;;;;;;;18.41;50.32;97743.25;5114055;27;20039;-61
2024/03/08 07:58:40;;;;;;;158.30;100.40;;;;;;;16.67;45.51;97751.03;5115312;27;20433;-57
2024/03/08 08:01:06;;;;;;;73.80;29.80;;;;;;;17.18;49.84;97740.63;5115086;27;20585;-60
2024/03/08 08:03:31;;;;;;;133.50;64.85;;;;;;;15.30;45.11;97749.69;5114030;27;20019;-62
2024/03/08 08:05:57;;;;;;;96.80;34.03;;;;;;;15.65;46.35;97741.75;5116695;27;20489;-59
2024/03/08 08:08:22;;;;;;;79.40;29.70;;;;;;;18.06;43.49;97748.91;5098870;27;20122;-60
2024/03/08 08:10:47;;;;;;;118.00;58.08;;;;;;;18.72;42.10;97736.75;5118011;27;22347;-58
2024/03/08 08:13:13;;;;;;;87.35;43.20;;;;;;;18.33;40.89;97731.25;5116343;27;20032;-62
2024/03/08 08:15:38;;;;;;;99.18;24.75;;;;;;;18.99;40.78;97726.84;5116192;27;20118;-61
2024/03/08 08:18:05;;;;;;;92.65;23.83;;;;;;;21.27;36.68;97727.03;5120001;27;20352;-60
2024/03/08 08:20:31;;;;;;;69.40;23.52;;;;;;;17.69;40.19;97727.47;5114631;27;20046;-59
2024/03/08 08:22:57;;;;;;;73.15;23.33;;;;;;;18.12;39.40;97727.69;5117036;27;20158;-61
2024/03/08 08:25:24;;;;;;;140.68;83.32;;;;;;;19.58;37.64;97725.28;5116000;27;20406;-60
2024/03/08 08:27:49;;;;;;;174.88;124.18;;;;;;;19.58;37.75;97712.97;5118161;27;20112;-60
2024/03/08 08:30:15;;;;;;;106.18;59.30;;;;;;;18.50;38.32;97719.19;5115193;27;20342;-59
2024/03/08 08:32:42;;;;;;;304.15;213.48;;;;;;;18.30;37.92;97718.19;5113795;27;20031;-58
2024/03/08 08:35:09;;;;;;;201.02;176.52;;;;;;;18.46;40.55;97715.84;5114469;27;20031;-59
2024/03/08 08:37:37;;;;;;;227.20;171.52;;;;;;;18.93;37.94;97702.53;5115742;27;20023;-63
2024/03/08 08:40:09;;;;;;;159.15;71.63;;;;;;;18.30;38.47;97710.28;5115988;27;20546;-58
2024/03/08 08:42:35;;;;;;;;;;;;;;;16.37;40.50;97707.31;5117704;27;20071;-58
2024/03/08 08:45:01;;;;;;;97.07;35.05;;;;;;;17.98;41.50;97700.97;5117592;27;20015;-57
2024/03/08 08:47:27;;;;;;;80.65;22.92;;;;;;;20.17;38.01;97685.69;5117161;27;20050;-58
2024/03/08 08:49:54;;;;;;;86.03;40.90;;;;;;;19.50;37.43;97692.22;5117583;27;20035;-61
2024/03/08 08:52:19;;;;;;;94.57;23.33;;;;;;;19.27;35.23;97682.69;5115656;27;20035;-58
2024/03/08 08:54:45;;;;;;;169.55;106.30;;;;;;;18.42;36.71;97700.19;5115529;27;20039;-61
2024/03/08 08:57:10;;;;;;;73.05;27.90;;;;;;;19.21;35.87;97691.69;5115795;27;20027;-58
2024/03/08 08:59:36;;;;;;;128.55;47.90;;;;;;;17.72;38.12;97689.69;5115295;27;20696;-58
2024/03/08 09:02:04;;;;;;;196.27;171.05;;;;;;;17.53;38.64;97688.59;5113052;27;20031;-58
2024/03/08 09:04:30;;;;;;;236.80;209.07;;;;;;;12.68;43.71;97698.50;5114912;27;20113;-61
2024/03/08 09:06:56;;;;;;;128.70;47.17;;;;;;;13.74;48.36;97685.25;5112996;27;20027;-61
2024/03/08 09:09:22;;;;;;;111.97;70.95;;;;;;;13.31;47.34;97684.34;5115563;27;20049;-60
2024/03/08 09:11:49;;;;;;;139.25;79.43;;;;;;;17.23;43.29;97677.41;5113504;27;20469;-60
2024/03/08 09:14:14;;;;;;;128.77;81.93;;;;;;;18.11;39.33;97672.47;5117256;27;20023;-60
2024/03/08 09:16:40;;;;;;;151.95;82.22;;;;;;;16.91;41.70;97674.97;5116376;27;20285;-60
2024/03/08 09:19:06;;;;;;;217.40;171.07;;;;;;;18.74;39.17;97664.66;5120421;27;20019;-58
2024/03/08 09:21:32;;;;;;;111.15;51.33;;;;;;;18.48;40.72;97670.97;5116868;27;20553;-57
2024/03/08 09:23:58;;;;;;;192.88;137.20;;;;;;;17.44;38.70;97676.63;5118395;27;20640;-57
2024/03/08 09:26:23;;;;;;;108.10;58.55;;;;;;;19.12;37.51;97653.41;5117402;27;20048;-63
2024/03/08 09:28:49;;;;;;;87.18;20.67;;;;;;;20.02;36.29;97647.69;5117109;27;20023;-59
2024/03/08 09:31:14;;;;;;;97.85;53.42;;;;;;;19.68;35.65;97657.13;5117794;27;20477;-59
2024/03/08 09:33:42;;;;;;;88.68;24.55;;;;;;;19.69;35.76;97646.53;5116757;27;20019;-61
2024/03/08 09:36:07;;;;;;;79.93;26.17;;;;;;;19.91;34.26;97656.06;5119252;27;20027;-59
2024/03/08 09:38:36;;;;;;;87.25;41.72;;;;;;;18.60;36.85;97646.78;5118535;27;20039;-61
2024/03/08 09:41:01;;;;;;;413.67;267.73;;;;;;;17.75;37.80;97650.97;5115380;27;20035;-61
2024/03/08 09:43:28;;;;;;;81.85;29.05;;;;;;;16.41;41.14;97650.34;5119259;27;20034;-60
2024/03/08 09:45:55;;;;;;;197.57;167.30;;;;;;;17.70;38.62;97639.75;5116280;27;20042;-59
2024/03/08 09:48:21;;;;;;;126.25;61.38;;;;;;;18.52;44.98;97643.59;5116598;27;20034;-60
2024/03/08 09:50:47;;;;;;;98.97;51.35;;;;;;;17.72;38.87;97639.72;5116007;27;20054;-59
2024/03/08 09:53:13;;;;;;;104.75;58.47;;;;;;;18.07;37.43;97640.97;5118203;27;20019;-61
2024/03/08 09:55:44;;;;;;;128.80;57.88;;;;;;;17.87;40.47;97638.25;5117003;27;20729;-58
2024/03/08 10:00:57;;;;;;;251.45;220.52;;;;;;;15.06;40.59;97640.28;5117402;27;20639;-59
2024/03/08 10:03:23;;;;;;;151.25;115.65;;;;;;;13.83;43.36;97634.53;5117673;27;20030;-60
2024/03/08 10:05:48;;;;;;;166.40;95.72;;;;;;;14.07;44.99;97627.91;5117062;27;20062;-62
2024/03/08 10:08:14;;;;;;;260.92;231.45;;;;;;;15.06;43.43;97624.56;5117894;27;20316;-61
2024/03/08 10:10:40;;;;;;;373.00;331.75;;;;;;;14.04;44.45;97627.97;5117567;27;20332;-58
2024/03/08 10:13:10;;;;;;;204.15;145.55;;;;;;;14.08;45.17;97636.59;5099593;27;20084;-61
2024/03/08 10:15:36;;;;;;;337.95;291.48;;;;;;;14.25;44.67;97620.53;5115875;27;20379;-63
2024/03/08 10:18:02;;;;;;;160.57;128.20;;;;;;;14.50;45.11;97615.53;5116383;27;20019;-59
2024/03/08 10:20:32;;;;;;;146.70;70.80;;;;;;;14.89;43.45;97614.56;5114598;27;20030;-61
2024/03/08 10:23:03;;;;;;;160.60;105.90;;;;;;;14.90;43.11;97607.56;5116584;27;20051;-61
2024/03/08 10:25:30;;;;;;;258.73;219.15;;;;;;;14.61;43.62;97602.16;5114263;27;20288;-59
2024/03/08 10:27:56;;;;;;;176.45;117.90;;;;;;;14.05;45.44;97619.22;5115931;27;20142;-61
2024/03/08 10:30:21;;;;;;;82.68;22.13;;;;;;;14.25;44.32;97599.59;5116516;27;20023;-60
2024/03/08 10:32:47;;;;;;;197.27;129.63;;;;;;;15.87;42.10;97605.66;5115097;27;20033;-61
2024/03/08 10:35:13;;;;;;;107.35;62.28;;;;;;;18.26;38.20;97595.50;5116575;27;20031;-59
2024/03/08 10:37:47;;;;;;;206.43;158.82;;;;;;;17.33;38.64;97599.09;5119415;27;20029;-59
2024/03/08 10:40:19;;;;;;;111.82;50.95;;;;;;;17.59;39.51;97597.25;5113910;27;20529;-59
2024/03/08 10:42:58;;;;;;;114.57;69.22;;;;;;;17.89;40.22;97589.09;5116830;27;20333;-58
2024/03/08 10:45:30;;;;;;;82.05;21.20;;;;;;;17.72;37.55;97585.34;5115502;27;20262;-59
2024/03/08 10:48:15;;;;;;;81.82;42.42;;;;;;;18.52;36.72;97587.47;5115978;27;20031;-58
2024/03/08 10:50:41;;;;;;;498.17;356.17;;;;;;;17.68;37.43;97586.38;5113342;27;20035;-58
2024/03/08 10:53:11;;;;;;;82.10;34.83;;;;;;;17.64;41.66;97582.16;5119489;27;20588;-59
2024/03/08 10:55:39;;;;;;;86.85;20.25;;;;;;;16.94;38.18;97574.19;5099037;27;20526;-59
2024/03/08 10:58:04;;;;;;;126.97;96.25;;;;;;;16.64;38.70;97572.59;5121551;27;20023;-60
2024/03/08 11:00:31;;;;;;;104.57;75.63;;;;;;;17.05;41.03;97565.00;5119962;27;20039;-59
2024/03/08 11:02:56;;;;;;;101.35;32.75;;;;;;;17.13;39.52;97571.78;5100473;27;20041;-61
2024/03/08 11:05:51;;;;;;;126.20;88.88;;;;;;;16.17;40.96;97568.91;5119432;27;20023;-60
2024/03/08 11:08:20;;;;;;;112.63;81.15;;;;;;;15.57;46.49;97567.25;5103202;27;20418;-59
2024/03/08 11:10:53;;;;;;;138.32;95.00;;;;;;;15.68;41.09;97559.03;5120023;27;20617;-62